Observation data for Tulia on 09/11/2017      Previous  Date  Next       Current Mesonet Observations  Soil Data  Daily Summary Page  Observations in Plain Language
KTIS 110500Z 12006KT 16/11 A3026 RMK A01 T01630107  RH  071%=      5-min Rain = 0
KTIS 110505Z 12006KT 16/11 A3026 RMK A01 T01590108  RH  073%=      5-min Rain = 0
KTIS 110510Z 11005KT 15/11 A3026 RMK A01 T01540108  RH  075%=      5-min Rain = 0
KTIS 110515Z 11005KT 15/11 A3026 RMK A01 T01490108  RH  078%=      5-min Rain = 0
KTIS 110520Z 11005KT 15/11 A3026 RMK A01 T01450108  RH  080%=      5-min Rain = 0
KTIS 110525Z 11005KT 14/11 A3025 RMK A01 T01420108  RH  082%=      5-min Rain = 0
KTIS 110530Z 11004KT 14/11 A3025 RMK A01 T01390108  RH  083%=      5-min Rain = 0
KTIS 110535Z 11004KT 14/11 A3025 RMK A01 T01370107  RH  084%=      5-min Rain = 0
KTIS 110540Z 11004KT 14/11 A3025 RMK A01 T01350107  RH  084%=      5-min Rain = 0
KTIS 110545Z 12004KT 13/11 A3025 RMK A01 T01340107  RH  085%=      5-min Rain = 0
KTIS 110550Z 12004KT 13/11 A3025 RMK A01 T01330106  RH  085%=      5-min Rain = 0
KTIS 110555Z 11004KT 13/11 A3026 RMK A01 T01320106  RH  086%=      5-min Rain = 0
KTIS 110600Z 11005KT 13/11 A3026 RMK A01 T01300105  RH  086%=      5-min Rain = 0
KTIS 110605Z 12005KT 13/11 A3025 RMK A01 T01280105  RH  087%=      5-min Rain = 0
KTIS 110610Z 12005KT 13/10 A3025 RMK A01 T01270104  RH  088%=      5-min Rain = 0
KTIS 110615Z 12005KT 13/10 A3025 RMK A01 T01260104  RH  088%=      5-min Rain = 0
KTIS 110620Z 12004KT 13/10 A3025 RMK A01 T01250103  RH  088%=      5-min Rain = 0
KTIS 110625Z 13004KT 12/10 A3025 RMK A01 T01240103  RH  088%=      5-min Rain = 0
KTIS 110630Z 14004KT 12/10 A3025 RMK A01 T01240103  RH  089%=      5-min Rain = 0
KTIS 110635Z 14004KT 12/10 A3025 RMK A01 T01240103  RH  088%=      5-min Rain = 0
KTIS 110640Z 14004KT 12/10 A3025 RMK A01 T01240102  RH  088%=      5-min Rain = 0
KTIS 110645Z 14004KT 12/10 A3025 RMK A01 T01230102  RH  088%=      5-min Rain = 0
KTIS 110650Z 14003KT 12/10 A3025 RMK A01 T01220101  RH  089%=      5-min Rain = 0
KTIS 110655Z 14003KT 12/10 A3025 RMK A01 T01220101  RH  089%=      5-min Rain = 0
KTIS 110700Z 15003KT 12/10 A3025 RMK A01 T01220102  RH  089%=      5-min Rain = 0
KTIS 110705Z 16004KT 12/10 A3025 RMK A01 T01220102  RH  089%=      5-min Rain = 0
KTIS 110710Z 16004KT 12/10 A3025 RMK A01 T01220102  RH  089%=      5-min Rain = 0
KTIS 110715Z 16004KT 12/10 A3025 RMK A01 T01200101  RH  089%=      5-min Rain = 0
KTIS 110720Z 16005KT 12/10 A3025 RMK A01 T01200101  RH  089%=      5-min Rain = 0
KTIS 110725Z 16004KT 12/10 A3024 RMK A01 T01200101  RH  089%=      5-min Rain = 0
KTIS 110730Z 17004KT 12/10 A3024 RMK A01 T01200101  RH  089%=      5-min Rain = 0
KTIS 110735Z 17004KT 12/10 A3024 RMK A01 T01200100  RH  089%=      5-min Rain = 0
KTIS 110740Z 17004KT 12/10 A3024 RMK A01 T01200100  RH  089%=      5-min Rain = 0
KTIS 110745Z 17004KT 12/10 A3024 RMK A01 T01210099  RH  088%=      5-min Rain = 0
KTIS 110750Z 16005KT 12/10 A3024 RMK A01 T01200098  RH  088%=      5-min Rain = 0
KTIS 110755Z 16004KT 12/10 A3024 RMK A01 T01190097  RH  088%=      5-min Rain = 0
KTIS 110800Z 17004KT 12/10 A3024 RMK A01 T01180096  RH  088%=      5-min Rain = 0
KTIS 110805Z 17004KT 12/10 A3024 RMK A01 T01160096  RH  089%=      5-min Rain = 0
KTIS 110810Z 18004KT 12/10 A3024 RMK A01 T01160097  RH  089%=      5-min Rain = 0
KTIS 110815Z 18004KT 12/10 A3024 RMK A01 T01170097  RH  089%=      5-min Rain = 0
KTIS 110820Z 18004KT 12/10 A3024 RMK A01 T01170097  RH  089%=      5-min Rain = 0
KTIS 110825Z 18004KT 12/10 A3024 RMK A01 T01180098  RH  089%=      5-min Rain = 0
KTIS 110830Z 18004KT 12/10 A3024 RMK A01 T01180097  RH  088%=      5-min Rain = 0
KTIS 110835Z 19005KT 12/10 A3024 RMK A01 T01190097  RH  088%=      5-min Rain = 0
KTIS 110840Z 19005KT 12/10 A3023 RMK A01 T01200097  RH  087%=      5-min Rain = 0
KTIS 110845Z 19004KT 12/10 A3023 RMK A01 T01210098  RH  087%=      5-min Rain = 0
KTIS 110850Z 21004KT 12/10 A3023 RMK A01 T01210095  RH  086%=      5-min Rain = 0
KTIS 110855Z 20005KT 12/09 A3023 RMK A01 T01190092  RH  085%=      5-min Rain = 0
KTIS 110900Z 20005KT 12/10 A3023 RMK A01 T01210096  RH  086%=      5-min Rain = 0
KTIS 110905Z 21004KT 12/10 A3023 RMK A01 T01220096  RH  085%=      5-min Rain = 0
KTIS 110910Z 21004KT 12/10 A3023 RMK A01 T01230095  RH  084%=      5-min Rain = 0
KTIS 110915Z 21004KT 12/10 A3023 RMK A01 T01230095  RH  084%=      5-min Rain = 0
KTIS 110920Z 21004KT 12/10 A3024 RMK A01 T01240095  RH  084%=      5-min Rain = 0
KTIS 110925Z 20004KT 12/10 A3024 RMK A01 T01240096  RH  084%=      5-min Rain = 0
KTIS 110930Z 20005KT 13/10 A3024 RMK A01 T01250096  RH  084%=      5-min Rain = 0
KTIS 110935Z 20005KT 13/10 A3023 RMK A01 T01250096  RH  084%=      5-min Rain = 0
KTIS 110940Z 20004KT 12/10 A3023 RMK A01 T01240095  RH  084%=      5-min Rain = 0
KTIS 110945Z 20004KT 12/10 A3024 RMK A01 T01230095  RH  084%=      5-min Rain = 0
KTIS 110950Z 21004KT 12/09 A3024 RMK A01 T01230094  RH  084%=      5-min Rain = 0
KTIS 110955Z 21004KT 12/09 A3024 RMK A01 T01210093  RH  084%=      5-min Rain = 0
KTIS 111000Z 22004KT 12/09 A3024 RMK A01 T01200090  RH  083%=      5-min Rain = 0
KTIS 111005Z 23003KT 12/09 A3024 RMK A01 T01170087  RH  083%=      5-min Rain = 0
KTIS 111010Z 23003KT 12/09 A3024 RMK A01 T01150087  RH  084%=      5-min Rain = 0
KTIS 111015Z 25003KT 12/09 A3024 RMK A01 T01150089  RH  086%=      5-min Rain = 0
KTIS 111020Z 25003KT 12/09 A3024 RMK A01 T01160091  RH  086%=      5-min Rain = 0
KTIS 111025Z 25003KT 12/09 A3024 RMK A01 T01150093  RH  087%=      5-min Rain = 0
KTIS 111030Z 27002KT 11/10 A3024 RMK A01 T01140095  RH  090%=      5-min Rain = 0
KTIS 111035Z 27001KT 11/10 A3024 RMK A01 T01130095  RH  090%=      5-min Rain = 0
KTIS 111040Z 25001KT 11/10 A3024 RMK A01 T01110095  RH  091%=      5-min Rain = 0
KTIS 111045Z 23001KT 11/10 A3024 RMK A01 T01110097  RH  092%=      5-min Rain = 0
KTIS 111050Z 22001KT 11/10 A3024 RMK A01 T01100096  RH  092%=      5-min Rain = 0
KTIS 111055Z 23001KT 11/10 A3024 RMK A01 T01090095  RH  093%=      5-min Rain = 0
KTIS 111100Z 23002KT 11/09 A3024 RMK A01 T01050092  RH  093%=      5-min Rain = 0
KTIS 111105Z 23002KT 10/09 A3024 RMK A01 T01020088  RH  093%=      5-min Rain = 0
KTIS 111110Z 23002KT 10/09 A3024 RMK A01 T01000088  RH  093%=      5-min Rain = 0
KTIS 111115Z 23003KT 10/09 A3024 RMK A01 T01000088  RH  094%=      5-min Rain = 0
KTIS 111120Z 23004KT 10/09 A3024 RMK A01 T00980085  RH  093%=      5-min Rain = 0
KTIS 111125Z 23004KT 10/08 A3024 RMK A01 T00960083  RH  093%=      5-min Rain = 0
KTIS 111130Z 24004KT 10/09 A3023 RMK A01 T00960085  RH  094%=      5-min Rain = 0
KTIS 111135Z 24004KT 10/09 A3024 RMK A01 T00990086  RH  094%=      5-min Rain = 0
KTIS 111140Z 24004KT 10/09 A3024 RMK A01 T00990086  RH  093%=      5-min Rain = 0
KTIS 111145Z 23004KT 10/09 A3024 RMK A01 T00990085  RH  093%=      5-min Rain = 0
KTIS 111150Z 24004KT 10/09 A3024 RMK A01 T01000086  RH  093%=      5-min Rain = 0
KTIS 111155Z 24004KT 10/09 A3024 RMK A01 T01010087  RH  092%=      5-min Rain = 0
KTIS 111200Z 24004KT 10/09 A3024 RMK A01 T01030087  RH  092%=      5-min Rain = 0
KTIS 111205Z 24004KT 10/09 A3024 RMK A01 T01040087  RH  091%=      5-min Rain = 0
KTIS 111210Z 24005KT 10/09 A3024 RMK A01 T01030087  RH  091%=      5-min Rain = 0
KTIS 111215Z 23005KT 11/09 A3024 RMK A01 T01050088  RH  091%=      5-min Rain = 0
KTIS 111220Z 24005KT 11/09 A3024 RMK A01 T01080090  RH  090%=      5-min Rain = 0
KTIS 111225Z 24005KT 11/09 A3024 RMK A01 T01090090  RH  089%=      5-min Rain = 0
KTIS 111230Z 24005KT 11/09 A3024 RMK A01 T01100090  RH  089%=      5-min Rain = 0
KTIS 111235Z 25004KT 11/09 A3024 RMK A01 T01110090  RH  088%=      5-min Rain = 0
KTIS 111240Z 25005KT 11/09 A3024 RMK A01 T01110090  RH  088%=      5-min Rain = 0
KTIS 111245Z 25004KT 11/09 A3024 RMK A01 T01130092  RH  088%=      5-min Rain = 0
KTIS 111250Z 25004KT 12/09 A3025 RMK A01 T01150094  RH  088%=      5-min Rain = 0
KTIS 111255Z 25004KT 12/09 A3025 RMK A01 T01170094  RH  087%=      5-min Rain = 0
KTIS 111300Z 25004KT 12/10 A3025 RMK A01 T01180095  RH  087%=      5-min Rain = 0
KTIS 111305Z 25004KT 12/10 A3025 RMK A01 T01210097  RH  087%=      5-min Rain = 0
KTIS 111310Z 25004KT 12/10 A3025 RMK A01 T01240100  RH  086%=      5-min Rain = 0
KTIS 111315Z 25004KT 13/10 A3025 RMK A01 T01280103  RH  086%=      5-min Rain = 0
KTIS 111320Z 25004KT 13/11 A3025 RMK A01 T01330106  RH  085%=      5-min Rain = 0
KTIS 111325Z 25004KT 14/11 A3025 RMK A01 T01370108  RH  084%=      5-min Rain = 0
KTIS 111330Z 25004KT 14/11 A3025 RMK A01 T01420108  RH  082%=      5-min Rain = 0
KTIS 111335Z 24004KT 15/11 A3025 RMK A01 T01460109  RH  080%=      5-min Rain = 0
KTIS 111340Z 24005KT 15/11 A3025 RMK A01 T01500108  RH  078%=      5-min Rain = 0
KTIS 111345Z 24005KT 15/11 A3025 RMK A01 T01530109  RH  076%=      5-min Rain = 0
KTIS 111350Z 24005KT 16/11 A3025 RMK A01 T01560108  RH  075%=      5-min Rain = 0
KTIS 111355Z 25006KT 16/11 A3025 RMK A01 T01590108  RH  073%=      5-min Rain = 0
KTIS 111400Z 25006KT 16/11 A3025 RMK A01 T01620109  RH  072%=      5-min Rain = 0
KTIS 111405Z 25006KT 17/11 A3025 RMK A01 T01650110  RH  071%=      5-min Rain = 0
KTIS 111410Z 24006KT 17/11 A3025 RMK A01 T01690110  RH  069%=      5-min Rain = 0
KTIS 111415Z 24007KT 17/11 A3025 RMK A01 T01730111  RH  068%=      5-min Rain = 0
KTIS 111420Z 23007KT 17/11 A3025 RMK A01 T01740112  RH  068%=      5-min Rain = 0
KTIS 111425Z 23008KT 18/12 A3025 RMK A01 T01760115  RH  068%=      5-min Rain = 0
KTIS 111430Z 23007KT 18/12 A3025 RMK A01 T01790117  RH  068%=      5-min Rain = 0
KTIS 111435Z 23008KT 18/12 A3025 RMK A01 T01830118  RH  067%=      5-min Rain = 0
KTIS 111440Z 23008KT 19/12 A3025 RMK A01 T01870120  RH  066%=      5-min Rain = 0
KTIS 111445Z 23010KT 19/12 A3025 RMK A01 T01910117  RH  064%=      5-min Rain = 0
KTIS 111450Z 24009KT 20/12 A3025 RMK A01 T01950119  RH  063%=      5-min Rain = 0
KTIS 111455Z 24009KT 20/12 A3025 RMK A01 T02000120  RH  061%=      5-min Rain = 0
KTIS 111500Z 24012KT 20/12 A3025 RMK A01 T02030119  RH  059%=      5-min Rain = 0
KTIS 111505Z 23013KT 20/12 A3025 RMK A01 T02040115  RH  058%=      5-min Rain = 0
KTIS 111510Z 24012KT 21/12 A3025 RMK A01 T02070117  RH  057%=      5-min Rain = 0
KTIS 111515Z 23011KT 21/12 A3025 RMK A01 T02110119  RH  057%=      5-min Rain = 0
KTIS 111520Z 23012KT 21/12 A3025 RMK A01 T02130120  RH  057%=      5-min Rain = 0
KTIS 111525Z 24012KT 22/12 A3025 RMK A01 T02170121  RH  056%=      5-min Rain = 0
KTIS 111530Z 24011KT 22/12 A3025 RMK A01 T02180121  RH  055%=      5-min Rain = 0
KTIS 111535Z 23011KT 22/12 A3025 RMK A01 T02210122  RH  054%=      5-min Rain = 0
KTIS 111540Z 23010G15KT 22/12 A3025 RMK A01 T02230124  RH  054%=      5-min Rain = 0
KTIS 111545Z 24012KT 23/12 A3025 RMK A01 T02260121  RH  052%=      5-min Rain = 0
KTIS 111550Z 24012KT 23/12 A3025 RMK A01 T02280122  RH  052%=      5-min Rain = 0
KTIS 111555Z 24012KT 23/12 A3025 RMK A01 T02300121  RH  051%=      5-min Rain = 0
KTIS 111600Z 25011KT 23/12 A3025 RMK A01 T02340123  RH  050%=      5-min Rain = 0
KTIS 111605Z 24011KT 24/12 A3025 RMK A01 T02350122  RH  050%=      5-min Rain = 0
KTIS 111610Z 24010KT 24/12 A3025 RMK A01 T02370124  RH  050%=      5-min Rain = 0
KTIS 111615Z 23011KT 24/12 A3025 RMK A01 T02380123  RH  049%=      5-min Rain = 0
KTIS 111620Z 24009KT 24/13 A3025 RMK A01 T02380125  RH  050%=      5-min Rain = 0
KTIS 111625Z 26011KT 24/13 A3025 RMK A01 T02430125  RH  049%=      5-min Rain = 0
KTIS 111630Z 25011KT 25/13 A3024 RMK A01 T02460126  RH  048%=      5-min Rain = 0
KTIS 111635Z 25011KT 25/13 A3024 RMK A01 T02480126  RH  047%=      5-min Rain = 0
KTIS 111640Z 25010KT 25/13 A3024 RMK A01 T02490127  RH  048%=      5-min Rain = 0
KTIS 111645Z 24010G15KT 25/13 A3024 RMK A01 T02530126  RH  046%=      5-min Rain = 0
KTIS 111650Z 26010KT 25/13 A3024 RMK A01 T02520125  RH  046%=      5-min Rain = 0
KTIS 111655Z 26010KT 26/13 A3024 RMK A01 T02560127  RH  046%=      5-min Rain = 0
KTIS 111700Z 25010KT 26/13 A3024 RMK A01 T02560125  RH  045%=      5-min Rain = 0
KTIS 111705Z 25009KT 26/13 A3024 RMK A01 T02570127  RH  045%=      5-min Rain = 0
KTIS 111710Z 26010KT 26/13 A3024 RMK A01 T02600127  RH  044%=      5-min Rain = 0
KTIS 111715Z 25009KT 26/13 A3024 RMK A01 T02610127  RH  044%=      5-min Rain = 0
KTIS 111720Z 25009G14KT 26/13 A3023 RMK A01 T02620126  RH  044%=      5-min Rain = 0
KTIS 111725Z 26008G13KT 27/13 A3023 RMK A01 T02650127  RH  043%=      5-min Rain = 0
KTIS 111730Z 25008KT 27/13 A3023 RMK A01 T02690127  RH  042%=      5-min Rain = 0
KTIS 111735Z 26008KT 27/12 A3023 RMK A01 T02660124  RH  042%=      5-min Rain = 0
KTIS 111740Z 26007KT 27/12 A3023 RMK A01 T02660123  RH  042%=      5-min Rain = 0
KTIS 111745Z 25008KT 27/12 A3023 RMK A01 T02690124  RH  042%=      5-min Rain = 0
KTIS 111750Z 26007KT 27/12 A3023 RMK A01 T02690123  RH  041%=      5-min Rain = 0
KTIS 111755Z 25006KT 27/12 A3023 RMK A01 T02690122  RH  041%=      5-min Rain = 0
KTIS 111800Z 26005G10KT 27/13 A3023 RMK A01 T02730126  RH  041%=      5-min Rain = 0
KTIS 111805Z 23006KT 27/12 A3023 RMK A01 T02730124  RH  040%=      5-min Rain = 0
KTIS 111810Z 29007KT 28/13 A3023 RMK A01 T02750125  RH  040%=      5-min Rain = 0
KTIS 111815Z 27003KT 28/12 A3022 RMK A01 T02750118  RH  038%=      5-min Rain = 0
KTIS 111820Z 28004KT 27/12 A3022 RMK A01 T02720122  RH  040%=      5-min Rain = 0
KTIS 111825Z 28004KT 28/12 A3022 RMK A01 T02760119  RH  038%=      5-min Rain = 0
KTIS 111830Z 25003G9KT 28/12 A3021 RMK A01 T02750118  RH  038%=      5-min Rain = 0
KTIS 111835Z 18005KT 28/13 A3021 RMK A01 T02770129  RH  041%=      5-min Rain = 0
KTIS 111840Z 24005KT 28/12 A3021 RMK A01 T02790124  RH  039%=      5-min Rain = 0
KTIS 111845Z 26003KT 28/12 A3021 RMK A01 T02800119  RH  038%=      5-min Rain = 0
KTIS 111850Z 23003KT 28/12 A3021 RMK A01 T02810122  RH  038%=      5-min Rain = 0
KTIS 111855Z 24006KT 29/13 A3021 RMK A01 T02850128  RH  039%=      5-min Rain = 0
KTIS 111900Z 25005KT 29/13 A3021 RMK A01 T02870126  RH  038%=      5-min Rain = 0
KTIS 111905Z 31003KT 29/12 A302 RMK A01 T02870117  RH  036%=      5-min Rain = 0
KTIS 111910Z 16003KT 29/13 A302 RMK A01 T02880132  RH  039%=      5-min Rain = 0
KTIS 111915Z 16006KT 29/13 A302 RMK A01 T02900132  RH  038%=      5-min Rain = 0
KTIS 111920Z 15004KT 29/13 A302 RMK A01 T02890130  RH  038%=      5-min Rain = 0
KTIS 111925Z 19004KT 29/13 A302 RMK A01 T02910128  RH  037%=      5-min Rain = 0
KTIS 111930Z 21003KT 29/12 A3019 RMK A01 T02920124  RH  036%=      5-min Rain = 0
KTIS 111935Z 25003G8KT 29/12 A3019 RMK A01 T02930118  RH  035%=      5-min Rain = 0
KTIS 111940Z 17003KT 29/12 A3019 RMK A01 T02930120  RH  035%=      5-min Rain = 0
KTIS 111945Z 17004KT 29/13 A3019 RMK A01 T02940130  RH  037%=      5-min Rain = 0
KTIS 111950Z 16002KT 30/13 A3018 RMK A01 T02960126  RH  036%=      5-min Rain = 0
KTIS 111955Z 13003KT 29/12 A3018 RMK A01 T02940123  RH  035%=      5-min Rain = 0
KTIS 112000Z 17004KT 30/13 A3018 RMK A01 T02960127  RH  036%=      5-min Rain = 0
KTIS 112005Z 18004KT 30/13 A3018 RMK A01 T02960127  RH  036%=      5-min Rain = 0
KTIS 112010Z 14006KT 30/14 A3018 RMK A01 T02980135  RH  038%=      5-min Rain = 0
KTIS 112015Z 12006KT 30/13 A3017 RMK A01 T02950134  RH  038%=      5-min Rain = 0
KTIS 112020Z 14004KT 30/13 A3017 RMK A01 T02950131  RH  037%=      5-min Rain = 0
KTIS 112025Z 17003KT 30/13 A3017 RMK A01 T02960125  RH  036%=      5-min Rain = 0
KTIS 112030Z 14002KT 30/13 A3017 RMK A01 T02980129  RH  036%=      5-min Rain = 0
KTIS 112035Z 17004KT 30/13 A3016 RMK A01 T03010126  RH  035%=      5-min Rain = 0
KTIS 112040Z 18004KT 30/13 A3016 RMK A01 T03020126  RH  035%=      5-min Rain = 0
KTIS 112045Z 18004KT 30/12 A3016 RMK A01 T03010121  RH  034%=      5-min Rain = 0
KTIS 112050Z 17004KT 30/12 A3016 RMK A01 T02990123  RH  034%=      5-min Rain = 0
KTIS 112055Z 17004KT 30/13 A3016 RMK A01 T02980126  RH  035%=      5-min Rain = 0
KTIS 112100Z 17003KT 30/13 A3015 RMK A01 T03000126  RH  035%=      5-min Rain = 0
KTIS 112105Z 15003KT 30/13 A3015 RMK A01 T03020125  RH  034%=      5-min Rain = 0
KTIS 112110Z 12004KT 30/13 A3015 RMK A01 T02990130  RH  036%=      5-min Rain = 0
KTIS 112115Z 12002KT 30/12 A3015 RMK A01 T02960123  RH  035%=      5-min Rain = 0
KTIS 112120Z 11004KT 30/13 A3015 RMK A01 T02970130  RH  037%=      5-min Rain = 0
KTIS 112125Z 10004KT 30/14 A3014 RMK A01 T02970136  RH  038%=      5-min Rain = 0
KTIS 112130Z 11004KT 30/13 A3014 RMK A01 T02970127  RH  036%=      5-min Rain = 0
KTIS 112135Z 13006KT 30/13 A3014 RMK A01 T02970131  RH  037%=      5-min Rain = 0
KTIS 112140Z 11006KT 30/13 A3014 RMK A01 T02970133  RH  037%=      5-min Rain = 0
KTIS 112145Z 10005KT 30/14 A3014 RMK A01 T02960137  RH  038%=      5-min Rain = 0
KTIS 112150Z 15004KT 30/13 A3014 RMK A01 T02970131  RH  037%=      5-min Rain = 0
KTIS 112155Z 14005KT 30/13 A3014 RMK A01 T02990129  RH  036%=      5-min Rain = 0
KTIS 112200Z 16006KT 30/13 A3014 RMK A01 T02980131  RH  036%=      5-min Rain = 0
KTIS 112205Z 16004KT 30/13 A3013 RMK A01 T02980127  RH  036%=      5-min Rain = 0
KTIS 112210Z 14003KT 30/13 A3013 RMK A01 T02990125  RH  035%=      5-min Rain = 0
KTIS 112215Z 13003KT 30/13 A3013 RMK A01 T02990130  RH  036%=      5-min Rain = 0
KTIS 112220Z 17004KT 30/13 A3013 RMK A01 T02990126  RH  035%=      5-min Rain = 0
KTIS 112225Z 21004KT 30/12 A3013 RMK A01 T03000120  RH  034%=      5-min Rain = 0
KTIS 112230Z 18005KT 30/13 A3013 RMK A01 T03000126  RH  035%=      5-min Rain = 0
KTIS 112235Z 16005KT 30/13 A3013 RMK A01 T03010134  RH  037%=      5-min Rain = 0
KTIS 112240Z 15004KT 30/13 A3013 RMK A01 T02990128  RH  036%=      5-min Rain = 0
KTIS 112245Z 15003KT 30/13 A3013 RMK A01 T02980131  RH  037%=      5-min Rain = 0
KTIS 112250Z 17003KT 30/12 A3013 RMK A01 T02990124  RH  035%=      5-min Rain = 0
KTIS 112255Z 15002KT 30/13 A3013 RMK A01 T03000127  RH  035%=      5-min Rain = 0
KTIS 112300Z 17004KT 30/13 A3013 RMK A01 T03000130  RH  036%=      5-min Rain = 0
KTIS 112305Z 16003KT 30/13 A3013 RMK A01 T02990132  RH  037%=      5-min Rain = 0
KTIS 112310Z 19005KT 30/13 A3012 RMK A01 T02970128  RH  036%=      5-min Rain = 0
KTIS 112315Z 19004KT 30/13 A3012 RMK A01 T02960126  RH  036%=      5-min Rain = 0
KTIS 112320Z 17004KT 30/13 A3012 RMK A01 T02960126  RH  036%=      5-min Rain = 0
KTIS 112325Z 15003KT 30/14 A3012 RMK A01 T02970142  RH  040%=      5-min Rain = 0
KTIS 112330Z 14003KT 30/15 A3012 RMK A01 T02950145  RH  041%=      5-min Rain = 0
KTIS 112335Z 14003KT 29/16 A3012 RMK A01 T02930161  RH  046%=      5-min Rain = 0
KTIS 112340Z 15004KT 29/16 A3012 RMK A01 T02930162  RH  046%=      5-min Rain = 0
KTIS 112345Z 15004KT 29/16 A3012 RMK A01 T02900157  RH  045%=      5-min Rain = 0
KTIS 112350Z 15005KT 29/16 A3012 RMK A01 T02860156  RH  046%=      5-min Rain = 0
KTIS 112355Z 16004KT 28/15 A3012 RMK A01 T02830151  RH  046%=      5-min Rain = 0
KTIS 120000Z 16004KT 28/15 A3012 RMK A01 T02820153  RH  046%=      5-min Rain = 0
KTIS 120005Z 16005KT 28/16 A3012 RMK A01 T02800155  RH  047%=      5-min Rain = 0
KTIS 120010Z 17005KT 27/15 A3012 RMK A01 T02740152  RH  048%=      5-min Rain = 0
KTIS 120015Z 17006KT 27/15 A3012 RMK A01 T02690148  RH  049%=      5-min Rain = 0
KTIS 120020Z 17006KT 26/15 A3012 RMK A01 T02640149  RH  050%=      5-min Rain = 0
KTIS 120025Z 16006KT 26/15 A3012 RMK A01 T02590153  RH  053%=      5-min Rain = 0
KTIS 120030Z 16005KT 26/16 A3012 RMK A01 T02550158  RH  056%=      5-min Rain = 0
KTIS 120035Z 15005KT 25/16 A3012 RMK A01 T02500161  RH  059%=      5-min Rain = 0
KTIS 120040Z 15005KT 25/16 A3012 RMK A01 T02450161  RH  061%=      5-min Rain = 0
KTIS 120045Z 15005KT 24/16 A3012 RMK A01 T02390160  RH  063%=      5-min Rain = 0
KTIS 120050Z 14004KT 23/16 A3012 RMK A01 T02340157  RH  063%=      5-min Rain = 0
KTIS 120055Z 14004KT 23/16 A3012 RMK A01 T02330155  RH  063%=      5-min Rain = 0
KTIS 120100Z 15005KT 23/16 A3012 RMK A01 T02300155  RH  064%=      5-min Rain = 0
KTIS 120105Z 15006KT 23/15 A3012 RMK A01 T02260154  RH  065%=      5-min Rain = 0
KTIS 120110Z 15005KT 22/15 A3012 RMK A01 T02210152  RH  066%=      5-min Rain = 0
KTIS 120115Z 15005KT 22/15 A3012 RMK A01 T02190151  RH  067%=      5-min Rain = 0
KTIS 120120Z 14005KT 22/15 A3012 RMK A01 T02170152  RH  068%=      5-min Rain = 0
KTIS 120125Z 13005KT 22/15 A3012 RMK A01 T02160152  RH  068%=      5-min Rain = 0
KTIS 120130Z 13005KT 21/15 A3013 RMK A01 T02140150  RH  069%=      5-min Rain = 0
KTIS 120135Z 13004KT 21/15 A3013 RMK A01 T02120148  RH  068%=      5-min Rain = 0
KTIS 120140Z 13004KT 21/15 A3013 RMK A01 T02100147  RH  069%=      5-min Rain = 0
KTIS 120145Z 13003KT 21/15 A3013 RMK A01 T02060147  RH  070%=      5-min Rain = 0
KTIS 120150Z 13003KT 20/15 A3013 RMK A01 T02030146  RH  071%=      5-min Rain = 0
KTIS 120155Z 12004KT 20/14 A3013 RMK A01 T02030142  RH  069%=      5-min Rain = 0
KTIS 120200Z 12004KT 20/14 A3014 RMK A01 T02020141  RH  069%=      5-min Rain = 0
KTIS 120205Z 12005KT 20/14 A3014 RMK A01 T01990141  RH  070%=      5-min Rain = 0
KTIS 120210Z 12005KT 20/14 A3014 RMK A01 T01970141  RH  071%=      5-min Rain = 0
KTIS 120215Z 12005KT 19/14 A3014 RMK A01 T01940140  RH  072%=      5-min Rain = 0
KTIS 120220Z 12004KT 19/14 A3014 RMK A01 T01920140  RH  074%=      5-min Rain = 0
KTIS 120225Z 12005KT 19/14 A3015 RMK A01 T01890141  RH  075%=      5-min Rain = 0
KTIS 120230Z 12005KT 19/14 A3015 RMK A01 T01860141  RH  077%=      5-min Rain = 0
KTIS 120235Z 13005KT 18/14 A3015 RMK A01 T01840140  RH  077%=      5-min Rain = 0
KTIS 120240Z 13005KT 18/14 A3015 RMK A01 T01840139  RH  077%=      5-min Rain = 0
KTIS 120245Z 13005KT 18/14 A3015 RMK A01 T01830138  RH  077%=      5-min Rain = 0
KTIS 120250Z 13005KT 18/14 A3015 RMK A01 T01830138  RH  077%=      5-min Rain = 0
KTIS 120255Z 12005KT 18/14 A3015 RMK A01 T01820138  RH  077%=      5-min Rain = 0
KTIS 120300Z 13005KT 18/14 A3015 RMK A01 T01820138  RH  077%=      5-min Rain = 0
KTIS 120305Z 13006KT 18/14 A3015 RMK A01 T01800138  RH  078%=      5-min Rain = 0
KTIS 120310Z 13006KT 18/14 A3015 RMK A01 T01810137  RH  077%=      5-min Rain = 0
KTIS 120315Z 13006KT 18/14 A3015 RMK A01 T01840136  RH  075%=      5-min Rain = 0
KTIS 120320Z 14006KT 18/14 A3015 RMK A01 T01830136  RH  076%=      5-min Rain = 0
KTIS 120325Z 13006KT 18/13 A3015 RMK A01 T01820134  RH  075%=      5-min Rain = 0
KTIS 120330Z 13006KT 18/13 A3015 RMK A01 T01820134  RH  075%=      5-min Rain = 0
KTIS 120335Z 14007KT 18/13 A3015 RMK A01 T01810134  RH  075%=      5-min Rain = 0
KTIS 120340Z 13007KT 18/13 A3015 RMK A01 T01820133  RH  075%=      5-min Rain = 0
KTIS 120345Z 14007KT 18/13 A3015 RMK A01 T01820132  RH  074%=      5-min Rain = 0
KTIS 120350Z 15007KT 18/13 A3015 RMK A01 T01820134  RH  075%=      5-min Rain = 0
KTIS 120355Z 15006KT 18/14 A3016 RMK A01 T01780135  RH  077%=      5-min Rain = 0
KTIS 120400Z 15006KT 18/14 A3016 RMK A01 T01750135  RH  079%=      5-min Rain = 0
KTIS 120405Z 15006KT 17/14 A3016 RMK A01 T01720135  RH  080%=      5-min Rain = 0
KTIS 120410Z 15006KT 17/14 A3016 RMK A01 T01700135  RH  081%=      5-min Rain = 0
KTIS 120415Z 15006KT 17/13 A3016 RMK A01 T01690134  RH  082%=      5-min Rain = 0
KTIS 120420Z 14006KT 17/13 A3015 RMK A01 T01690134  RH  081%=      5-min Rain = 0
KTIS 120425Z 14006KT 17/13 A3015 RMK A01 T01700133  RH  080%=      5-min Rain = 0
KTIS 120430Z 14006KT 17/13 A3016 RMK A01 T01710132  RH  079%=      5-min Rain = 0
KTIS 120435Z 15006KT 17/13 A3016 RMK A01 T01700131  RH  080%=      5-min Rain = 0
KTIS 120440Z 17005KT 17/13 A3016 RMK A01 T01680131  RH  081%=      5-min Rain = 0
KTIS 120445Z 17004KT 17/13 A3016 RMK A01 T01660130  RH  081%=      5-min Rain = 0
KTIS 120450Z 17004KT 17/13 A3016 RMK A01 T01650129  RH  081%=      5-min Rain = 0
KTIS 120455Z 17003KT 17/13 A3016 RMK A01 T01650129  RH  081%=      5-min Rain = 0

Page generated in 0.0328 seconds.